sensor_id;sensor_type;location;lat;lon;timestamp;P1;durP1;ratioP1;P2;durP2;ratioP2
7919;SDS011;18778;47.610;9.776;2023-03-01T00:01:17;28.37;;;18.97;;
7919;SDS011;18778;47.610;9.776;2023-03-01T00:03:44;30.37;;;18.40;;
7919;SDS011;18778;47.610;9.776;2023-03-01T00:06:10;31.40;;;19.53;;
7919;SDS011;18778;47.610;9.776;2023-03-01T00:08:36;27.77;;;17.33;;
7919;SDS011;18778;47.610;9.776;2023-03-01T00:13:31;30.30;;;19.13;;
7919;SDS011;18778;47.610;9.776;2023-03-01T00:15:57;27.17;;;17.37;;
7919;SDS011;18778;47.610;9.776;2023-03-01T00:18:23;27.80;;;18.80;;
7919;SDS011;18778;47.610;9.776;2023-03-01T00:20:50;30.13;;;18.97;;
7919;SDS011;18778;47.610;9.776;2023-03-01T00:23:16;29.90;;;19.77;;
7919;SDS011;18778;47.610;9.776;2023-03-01T00:25:42;27.23;;;17.93;;
7919;SDS011;18778;47.610;9.776;2023-03-01T00:28:08;28.77;;;18.13;;
7919;SDS011;18778;47.610;9.776;2023-03-01T00:30:34;27.43;;;17.50;;
7919;SDS011;18778;47.610;9.776;2023-03-01T00:32:59;30.37;;;19.33;;
7919;SDS011;18778;47.610;9.776;2023-03-01T00:35:25;27.70;;;17.93;;
7919;SDS011;18778;47.610;9.776;2023-03-01T00:37:50;30.17;;;18.80;;
7919;SDS011;18778;47.610;9.776;2023-03-01T00:40:22;30.53;;;18.63;;
7919;SDS011;18778;47.610;9.776;2023-03-01T00:42:49;30.33;;;19.67;;
7919;SDS011;18778;47.610;9.776;2023-03-01T00:45:14;30.90;;;18.87;;
7919;SDS011;18778;47.610;9.776;2023-03-01T00:47:40;31.10;;;19.27;;
7919;SDS011;18778;47.610;9.776;2023-03-01T00:50:06;28.60;;;18.47;;
7919;SDS011;18778;47.610;9.776;2023-03-01T00:52:32;26.07;;;17.87;;
7919;SDS011;18778;47.610;9.776;2023-03-01T00:54:57;27.97;;;17.13;;
7919;SDS011;18778;47.610;9.776;2023-03-01T00:57:23;28.93;;;17.63;;
7919;SDS011;18778;47.610;9.776;2023-03-01T00:59:49;28.90;;;18.47;;
7919;SDS011;18778;47.610;9.776;2023-03-01T01:02:14;28.73;;;18.57;;
7919;SDS011;18778;47.610;9.776;2023-03-01T01:04:40;29.90;;;19.43;;
7919;SDS011;18778;47.610;9.776;2023-03-01T01:07:06;30.03;;;18.60;;
7919;SDS011;18778;47.610;9.776;2023-03-01T01:09:31;27.80;;;18.00;;
7919;SDS011;18778;47.610;9.776;2023-03-01T01:11:57;30.73;;;18.93;;
7919;SDS011;18778;47.610;9.776;2023-03-01T01:14:23;30.20;;;18.73;;
7919;SDS011;18778;47.610;9.776;2023-03-01T01:16:48;28.03;;;18.77;;
7919;SDS011;18778;47.610;9.776;2023-03-01T01:19:14;26.93;;;17.57;;
7919;SDS011;18778;47.610;9.776;2023-03-01T01:21:41;27.60;;;18.07;;
7919;SDS011;18778;47.610;9.776;2023-03-01T01:24:11;31.00;;;19.37;;
7919;SDS011;18778;47.610;9.776;2023-03-01T01:26:37;27.90;;;18.60;;
7919;SDS011;18778;47.610;9.776;2023-03-01T01:29:03;27.43;;;18.43;;
7919;SDS011;18778;47.610;9.776;2023-03-01T01:31:30;27.73;;;18.23;;
7919;SDS011;18778;47.610;9.776;2023-03-01T01:33:57;26.83;;;18.10;;
7919;SDS011;18778;47.610;9.776;2023-03-01T01:36:24;27.63;;;18.67;;
7919;SDS011;18778;47.610;9.776;2023-03-01T01:38:49;27.50;;;18.37;;
7919;SDS011;18778;47.610;9.776;2023-03-01T01:41:16;31.53;;;19.40;;
7919;SDS011;18778;47.610;9.776;2023-03-01T01:43:46;28.20;;;17.60;;
7919;SDS011;18778;47.610;9.776;2023-03-01T01:48:55;28.13;;;17.83;;
7919;SDS011;18778;47.610;9.776;2023-03-01T01:51:25;27.03;;;18.03;;
7919;SDS011;18778;47.610;9.776;2023-03-01T01:54:03;27.53;;;18.23;;
7919;SDS011;18778;47.610;9.776;2023-03-01T01:56:34;26.80;;;17.37;;
7919;SDS011;18778;47.610;9.776;2023-03-01T01:59:03;26.43;;;17.33;;
7919;SDS011;18778;47.610;9.776;2023-03-01T02:01:29;28.33;;;18.07;;
7919;SDS011;18778;47.610;9.776;2023-03-01T02:03:54;27.53;;;16.53;;
7919;SDS011;18778;47.610;9.776;2023-03-01T02:06:22;27.80;;;18.00;;
7919;SDS011;18778;47.610;9.776;2023-03-01T02:08:55;28.47;;;17.93;;
7919;SDS011;18778;47.610;9.776;2023-03-01T02:11:24;29.73;;;18.13;;
7919;SDS011;18778;47.610;9.776;2023-03-01T02:13:52;29.33;;;19.33;;
7919;SDS011;18778;47.610;9.776;2023-03-01T02:16:19;32.03;;;20.17;;
7919;SDS011;18778;47.610;9.776;2023-03-01T02:18:45;32.83;;;20.37;;
7919;SDS011;18778;47.610;9.776;2023-03-01T02:23:36;32.83;;;20.47;;
7919;SDS011;18778;47.610;9.776;2023-03-01T02:26:18;30.83;;;19.77;;
7919;SDS011;18778;47.610;9.776;2023-03-01T02:28:50;33.20;;;20.33;;
7919;SDS011;18778;47.610;9.776;2023-03-01T02:31:17;34.17;;;19.87;;
7919;SDS011;18778;47.610;9.776;2023-03-01T02:34:03;33.47;;;20.57;;
7919;SDS011;18778;47.610;9.776;2023-03-01T02:36:31;33.20;;;20.57;;
7919;SDS011;18778;47.610;9.776;2023-03-01T02:39:02;30.80;;;19.47;;
7919;SDS011;18778;47.610;9.776;2023-03-01T02:41:32;32.00;;;19.90;;
7919;SDS011;18778;47.610;9.776;2023-03-01T02:44:00;30.03;;;19.17;;
7919;SDS011;18778;47.610;9.776;2023-03-01T02:46:26;28.93;;;18.50;;
7919;SDS011;18778;47.610;9.776;2023-03-01T02:48:53;29.30;;;18.33;;
7919;SDS011;18778;47.610;9.776;2023-03-01T02:53:53;27.90;;;19.13;;
7919;SDS011;18778;47.610;9.776;2023-03-01T02:56:38;28.70;;;18.47;;
7919;SDS011;18778;47.610;9.776;2023-03-01T02:59:05;28.57;;;18.40;;
7919;SDS011;18778;47.610;9.776;2023-03-01T03:01:32;28.13;;;18.63;;
7919;SDS011;18778;47.610;9.776;2023-03-01T03:04:08;31.87;;;18.23;;
7919;SDS011;18778;47.610;9.776;2023-03-01T03:06:35;27.57;;;17.30;;
7919;SDS011;18778;47.610;9.776;2023-03-01T03:09:01;29.93;;;19.07;;
7919;SDS011;18778;47.610;9.776;2023-03-01T03:11:28;31.10;;;19.20;;
7919;SDS011;18778;47.610;9.776;2023-03-01T03:13:54;31.23;;;19.53;;
7919;SDS011;18778;47.610;9.776;2023-03-01T03:16:20;30.23;;;18.30;;
7919;SDS011;18778;47.610;9.776;2023-03-01T03:18:45;29.17;;;18.80;;
7919;SDS011;18778;47.610;9.776;2023-03-01T03:21:11;32.33;;;19.33;;
7919;SDS011;18778;47.610;9.776;2023-03-01T03:23:37;32.23;;;19.43;;
7919;SDS011;18778;47.610;9.776;2023-03-01T03:26:03;29.23;;;19.30;;
7919;SDS011;18778;47.610;9.776;2023-03-01T03:28:33;28.47;;;19.40;;
7919;SDS011;18778;47.610;9.776;2023-03-01T03:30:59;32.00;;;20.30;;
7919;SDS011;18778;47.610;9.776;2023-03-01T03:33:29;31.07;;;20.27;;
7919;SDS011;18778;47.610;9.776;2023-03-01T03:35:55;29.93;;;19.57;;
7919;SDS011;18778;47.610;9.776;2023-03-01T03:38:21;29.97;;;19.00;;
7919;SDS011;18778;47.610;9.776;2023-03-01T03:40:48;33.30;;;20.40;;
7919;SDS011;18778;47.610;9.776;2023-03-01T03:43:16;31.53;;;19.47;;
7919;SDS011;18778;47.610;9.776;2023-03-01T03:45:44;32.20;;;19.73;;
7919;SDS011;18778;47.610;9.776;2023-03-01T03:48:11;32.50;;;20.13;;
7919;SDS011;18778;47.610;9.776;2023-03-01T03:50:38;33.37;;;21.17;;
7919;SDS011;18778;47.610;9.776;2023-03-01T03:53:08;32.83;;;20.27;;
7919;SDS011;18778;47.610;9.776;2023-03-01T03:55:36;30.37;;;19.73;;
7919;SDS011;18778;47.610;9.776;2023-03-01T03:58:04;33.60;;;21.03;;
7919;SDS011;18778;47.610;9.776;2023-03-01T04:00:38;31.33;;;20.27;;
7919;SDS011;18778;47.610;9.776;2023-03-01T04:03:08;32.87;;;20.90;;
7919;SDS011;18778;47.610;9.776;2023-03-01T04:05:35;32.83;;;20.13;;
7919;SDS011;18778;47.610;9.776;2023-03-01T04:08:01;36.30;;;22.53;;
7919;SDS011;18778;47.610;9.776;2023-03-01T04:10:28;34.47;;;21.23;;
7919;SDS011;18778;47.610;9.776;2023-03-01T04:12:54;34.30;;;20.90;;
7919;SDS011;18778;47.610;9.776;2023-03-01T04:15:23;36.17;;;21.90;;
7919;SDS011;18778;47.610;9.776;2023-03-01T04:17:51;38.80;;;22.40;;
7919;SDS011;18778;47.610;9.776;2023-03-01T04:20:22;35.33;;;22.03;;
7919;SDS011;18778;47.610;9.776;2023-03-01T04:22:49;35.10;;;21.90;;
7919;SDS011;18778;47.610;9.776;2023-03-01T04:25:39;36.80;;;22.17;;
7919;SDS011;18778;47.610;9.776;2023-03-01T04:28:06;36.67;;;22.60;;
7919;SDS011;18778;47.610;9.776;2023-03-01T04:30:32;36.60;;;21.93;;
7919;SDS011;18778;47.610;9.776;2023-03-01T04:33:01;39.13;;;22.73;;
7919;SDS011;18778;47.610;9.776;2023-03-01T04:35:28;39.13;;;22.70;;
7919;SDS011;18778;47.610;9.776;2023-03-01T04:37:54;41.17;;;23.87;;
7919;SDS011;18778;47.610;9.776;2023-03-01T04:40:19;38.50;;;22.97;;
7919;SDS011;18778;47.610;9.776;2023-03-01T04:42:46;39.93;;;23.10;;
7919;SDS011;18778;47.610;9.776;2023-03-01T04:45:12;36.43;;;22.27;;
7919;SDS011;18778;47.610;9.776;2023-03-01T04:47:40;38.47;;;23.20;;
7919;SDS011;18778;47.610;9.776;2023-03-01T04:50:08;35.83;;;22.63;;
7919;SDS011;18778;47.610;9.776;2023-03-01T04:52:34;36.43;;;21.77;;
7919;SDS011;18778;47.610;9.776;2023-03-01T04:55:00;36.37;;;22.20;;
7919;SDS011;18778;47.610;9.776;2023-03-01T04:57:26;39.93;;;24.73;;
7919;SDS011;18778;47.610;9.776;2023-03-01T04:59:51;37.80;;;22.07;;
7919;SDS011;18778;47.610;9.776;2023-03-01T05:02:16;43.10;;;24.57;;
7919;SDS011;18778;47.610;9.776;2023-03-01T05:04:42;37.43;;;22.57;;
7919;SDS011;18778;47.610;9.776;2023-03-01T05:07:08;34.73;;;20.80;;
7919;SDS011;18778;47.610;9.776;2023-03-01T05:09:33;33.40;;;20.93;;
7919;SDS011;18778;47.610;9.776;2023-03-01T05:11:59;34.37;;;21.43;;
7919;SDS011;18778;47.610;9.776;2023-03-01T05:14:24;34.70;;;20.73;;
7919;SDS011;18778;47.610;9.776;2023-03-01T05:16:50;43.27;;;24.57;;
7919;SDS011;18778;47.610;9.776;2023-03-01T05:19:16;43.73;;;24.17;;
7919;SDS011;18778;47.610;9.776;2023-03-01T05:21:42;32.30;;;20.77;;
7919;SDS011;18778;47.610;9.776;2023-03-01T05:24:26;32.07;;;21.00;;
7919;SDS011;18778;47.610;9.776;2023-03-01T05:26:53;34.40;;;20.90;;
7919;SDS011;18778;47.610;9.776;2023-03-01T05:29:19;36.60;;;21.20;;
7919;SDS011;18778;47.610;9.776;2023-03-01T05:31:50;33.93;;;20.63;;
7919;SDS011;18778;47.610;9.776;2023-03-01T05:34:23;31.03;;;19.43;;
7919;SDS011;18778;47.610;9.776;2023-03-01T05:36:53;33.47;;;20.23;;
7919;SDS011;18778;47.610;9.776;2023-03-01T05:39:20;31.70;;;18.97;;
7919;SDS011;18778;47.610;9.776;2023-03-01T05:41:47;32.60;;;19.20;;
7919;SDS011;18778;47.610;9.776;2023-03-01T05:44:13;32.90;;;20.10;;
7919;SDS011;18778;47.610;9.776;2023-03-01T05:46:39;30.50;;;19.20;;
7919;SDS011;18778;47.610;9.776;2023-03-01T05:49:04;27.43;;;18.30;;
7919;SDS011;18778;47.610;9.776;2023-03-01T05:51:30;28.53;;;17.77;;
7919;SDS011;18778;47.610;9.776;2023-03-01T05:53:56;30.47;;;17.80;;
7919;SDS011;18778;47.610;9.776;2023-03-01T05:56:34;30.27;;;19.07;;
7919;SDS011;18778;47.610;9.776;2023-03-01T05:59:01;27.73;;;18.13;;
7919;SDS011;18778;47.610;9.776;2023-03-01T06:01:26;28.20;;;18.63;;
7919;SDS011;18778;47.610;9.776;2023-03-01T06:03:52;28.50;;;18.53;;
7919;SDS011;18778;47.610;9.776;2023-03-01T06:06:18;26.40;;;17.27;;
7919;SDS011;18778;47.610;9.776;2023-03-01T06:08:43;29.57;;;19.30;;
7919;SDS011;18778;47.610;9.776;2023-03-01T06:11:09;28.17;;;17.17;;
7919;SDS011;18778;47.610;9.776;2023-03-01T06:13:34;29.03;;;18.63;;
7919;SDS011;18778;47.610;9.776;2023-03-01T06:16:00;29.23;;;18.60;;
7919;SDS011;18778;47.610;9.776;2023-03-01T06:18:28;28.73;;;18.27;;
7919;SDS011;18778;47.610;9.776;2023-03-01T06:20:54;30.40;;;17.57;;
7919;SDS011;18778;47.610;9.776;2023-03-01T06:23:21;25.67;;;17.33;;
7919;SDS011;18778;47.610;9.776;2023-03-01T06:25:47;26.50;;;17.57;;
7919;SDS011;18778;47.610;9.776;2023-03-01T06:28:12;29.67;;;18.80;;
7919;SDS011;18778;47.610;9.776;2023-03-01T06:30:38;27.50;;;18.33;;
7919;SDS011;18778;47.610;9.776;2023-03-01T06:33:03;27.77;;;17.73;;
7919;SDS011;18778;47.610;9.776;2023-03-01T06:35:29;28.07;;;17.77;;
7919;SDS011;18778;47.610;9.776;2023-03-01T06:37:56;29.10;;;18.57;;
7919;SDS011;18778;47.610;9.776;2023-03-01T06:40:22;27.70;;;17.73;;
7919;SDS011;18778;47.610;9.776;2023-03-01T06:42:48;27.73;;;17.27;;
7919;SDS011;18778;47.610;9.776;2023-03-01T06:45:15;27.07;;;16.67;;
7919;SDS011;18778;47.610;9.776;2023-03-01T06:47:42;27.03;;;18.30;;
7919;SDS011;18778;47.610;9.776;2023-03-01T06:50:08;27.60;;;17.77;;
7919;SDS011;18778;47.610;9.776;2023-03-01T06:52:34;26.83;;;17.40;;
7919;SDS011;18778;47.610;9.776;2023-03-01T06:55:00;27.63;;;17.70;;
7919;SDS011;18778;47.610;9.776;2023-03-01T06:57:26;26.77;;;17.30;;
7919;SDS011;18778;47.610;9.776;2023-03-01T06:59:51;26.13;;;16.93;;
7919;SDS011;18778;47.610;9.776;2023-03-01T07:02:17;26.10;;;17.23;;
7919;SDS011;18778;47.610;9.776;2023-03-01T07:04:42;27.23;;;17.73;;
7919;SDS011;18778;47.610;9.776;2023-03-01T07:07:08;25.73;;;16.30;;
7919;SDS011;18778;47.610;9.776;2023-03-01T07:09:34;25.90;;;16.80;;
7919;SDS011;18778;47.610;9.776;2023-03-01T07:11:59;28.77;;;18.27;;
7919;SDS011;18778;47.610;9.776;2023-03-01T07:14:25;26.73;;;17.80;;
7919;SDS011;18778;47.610;9.776;2023-03-01T07:16:54;28.60;;;17.23;;
7919;SDS011;18778;47.610;9.776;2023-03-01T07:19:20;28.57;;;18.10;;
7919;SDS011;18778;47.610;9.776;2023-03-01T07:21:46;28.77;;;17.30;;
7919;SDS011;18778;47.610;9.776;2023-03-01T07:24:12;29.70;;;18.17;;
7919;SDS011;18778;47.610;9.776;2023-03-01T07:26:38;26.70;;;17.33;;
7919;SDS011;18778;47.610;9.776;2023-03-01T07:29:04;29.10;;;17.67;;
7919;SDS011;18778;47.610;9.776;2023-03-01T07:31:31;27.70;;;18.23;;
7919;SDS011;18778;47.610;9.776;2023-03-01T07:33:57;30.20;;;18.93;;
7919;SDS011;18778;47.610;9.776;2023-03-01T07:36:22;28.53;;;18.67;;
7919;SDS011;18778;47.610;9.776;2023-03-01T07:38:48;29.07;;;18.40;;
7919;SDS011;18778;47.610;9.776;2023-03-01T07:41:14;29.40;;;18.27;;
7919;SDS011;18778;47.610;9.776;2023-03-01T07:43:40;30.17;;;18.50;;
7919;SDS011;18778;47.610;9.776;2023-03-01T07:46:05;29.83;;;18.40;;
7919;SDS011;18778;47.610;9.776;2023-03-01T07:48:32;30.00;;;17.83;;
7919;SDS011;18778;47.610;9.776;2023-03-01T07:51:02;30.00;;;18.73;;
7919;SDS011;18778;47.610;9.776;2023-03-01T07:53:29;27.60;;;18.07;;
7919;SDS011;18778;47.610;9.776;2023-03-01T07:58:29;63.20;;;20.03;;
7919;SDS011;18778;47.610;9.776;2023-03-01T08:00:54;57.53;;;20.33;;
7919;SDS011;18778;47.610;9.776;2023-03-01T08:03:20;41.97;;;19.13;;
7919;SDS011;18778;47.610;9.776;2023-03-01T08:05:45;43.53;;;19.17;;
7919;SDS011;18778;47.610;9.776;2023-03-01T08:08:11;57.00;;;19.87;;
7919;SDS011;18778;47.610;9.776;2023-03-01T08:10:36;35.67;;;17.53;;
7919;SDS011;18778;47.610;9.776;2023-03-01T08:13:02;35.13;;;18.47;;
7919;SDS011;18778;47.610;9.776;2023-03-01T08:15:27;30.83;;;18.50;;
7919;SDS011;18778;47.610;9.776;2023-03-01T08:17:53;32.73;;;17.73;;
7919;SDS011;18778;47.610;9.776;2023-03-01T08:20:18;29.97;;;18.33;;
7919;SDS011;18778;47.610;9.776;2023-03-01T08:22:44;31.00;;;18.63;;
7919;SDS011;18778;47.610;9.776;2023-03-01T08:25:09;39.63;;;20.17;;
7919;SDS011;18778;47.610;9.776;2023-03-01T08:27:35;27.03;;;17.07;;
7919;SDS011;18778;47.610;9.776;2023-03-01T08:30:01;27.20;;;17.27;;
7919;SDS011;18778;47.610;9.776;2023-03-01T08:32:26;30.73;;;16.63;;
7919;SDS011;18778;47.610;9.776;2023-03-01T08:34:52;28.50;;;18.63;;
7919;SDS011;18778;47.610;9.776;2023-03-01T08:37:17;33.53;;;19.33;;
7919;SDS011;18778;47.610;9.776;2023-03-01T08:39:43;35.73;;;17.90;;
7919;SDS011;18778;47.610;9.776;2023-03-01T08:42:08;31.50;;;17.27;;
7919;SDS011;18778;47.610;9.776;2023-03-01T08:44:34;27.63;;;18.13;;
7919;SDS011;18778;47.610;9.776;2023-03-01T08:47:00;27.73;;;17.00;;
7919;SDS011;18778;47.610;9.776;2023-03-01T08:49:27;29.60;;;18.17;;
7919;SDS011;18778;47.610;9.776;2023-03-01T08:51:52;25.37;;;17.27;;
7919;SDS011;18778;47.610;9.776;2023-03-01T08:54:19;28.00;;;17.30;;
7919;SDS011;18778;47.610;9.776;2023-03-01T08:56:47;29.30;;;18.50;;
7919;SDS011;18778;47.610;9.776;2023-03-01T08:59:14;30.73;;;19.77;;
7919;SDS011;18778;47.610;9.776;2023-03-01T09:01:40;29.83;;;19.03;;
7919;SDS011;18778;47.610;9.776;2023-03-01T09:04:10;27.20;;;17.57;;
7919;SDS011;18778;47.610;9.776;2023-03-01T09:06:36;26.00;;;16.87;;
7919;SDS011;18778;47.610;9.776;2023-03-01T09:09:03;25.97;;;16.87;;
7919;SDS011;18778;47.610;9.776;2023-03-01T09:11:30;26.67;;;16.87;;
7919;SDS011;18778;47.610;9.776;2023-03-01T09:13:56;29.90;;;18.10;;
7919;SDS011;18778;47.610;9.776;2023-03-01T09:16:22;24.57;;;16.17;;
7919;SDS011;18778;47.610;9.776;2023-03-01T09:18:49;29.73;;;19.30;;
7919;SDS011;18778;47.610;9.776;2023-03-01T09:21:19;31.20;;;18.37;;
7919;SDS011;18778;47.610;9.776;2023-03-01T09:23:46;27.07;;;18.97;;
7919;SDS011;18778;47.610;9.776;2023-03-01T09:26:14;29.33;;;17.97;;
7919;SDS011;18778;47.610;9.776;2023-03-01T09:28:41;29.53;;;18.17;;
7919;SDS011;18778;47.610;9.776;2023-03-01T09:31:09;24.10;;;16.53;;
7919;SDS011;18778;47.610;9.776;2023-03-01T09:33:38;29.30;;;18.10;;
7919;SDS011;18778;47.610;9.776;2023-03-01T09:36:06;28.30;;;17.93;;
7919;SDS011;18778;47.610;9.776;2023-03-01T09:38:36;29.17;;;17.77;;
7919;SDS011;18778;47.610;9.776;2023-03-01T09:41:02;24.90;;;16.93;;
7919;SDS011;18778;47.610;9.776;2023-03-01T09:46:11;25.50;;;16.40;;
7919;SDS011;18778;47.610;9.776;2023-03-01T09:48:42;25.87;;;16.87;;
7919;SDS011;18778;47.610;9.776;2023-03-01T09:51:15;26.00;;;16.37;;
7919;SDS011;18778;47.610;9.776;2023-03-01T09:53:54;27.77;;;17.00;;
7919;SDS011;18778;47.610;9.776;2023-03-01T09:56:24;26.70;;;16.53;;
7919;SDS011;18778;47.610;9.776;2023-03-01T10:04:41;28.97;;;17.53;;
7919;SDS011;18778;47.610;9.776;2023-03-01T10:09:51;29.97;;;18.80;;
7919;SDS011;18778;47.610;9.776;2023-03-01T10:12:18;26.60;;;16.43;;
7919;SDS011;18778;47.610;9.776;2023-03-01T10:14:51;27.73;;;16.40;;
7919;SDS011;18778;47.610;9.776;2023-03-01T10:22:49;24.97;;;16.67;;
7919;SDS011;18778;47.610;9.776;2023-03-01T10:26:05;25.03;;;16.63;;
7919;SDS011;18778;47.610;9.776;2023-03-01T10:28:10;24.27;;;16.73;;
7919;SDS011;18778;47.610;9.776;2023-03-01T10:30:56;24.93;;;17.07;;
7919;SDS011;18778;47.610;9.776;2023-03-01T10:33:26;24.70;;;16.37;;
7919;SDS011;18778;47.610;9.776;2023-03-01T10:35:57;26.53;;;16.73;;
7919;SDS011;18778;47.610;9.776;2023-03-01T10:38:23;24.83;;;16.57;;
7919;SDS011;18778;47.610;9.776;2023-03-01T10:40:59;24.73;;;16.47;;
7919;SDS011;18778;47.610;9.776;2023-03-01T10:49:16;24.70;;;16.63;;
7919;SDS011;18778;47.610;9.776;2023-03-01T10:51:48;26.33;;;16.67;;
7919;SDS011;18778;47.610;9.776;2023-03-01T10:54:27;25.97;;;17.40;;
7919;SDS011;18778;47.610;9.776;2023-03-01T10:57:01;28.40;;;16.83;;
7919;SDS011;18778;47.610;9.776;2023-03-01T10:59:30;25.53;;;15.27;;
7919;SDS011;18778;47.610;9.776;2023-03-01T11:02:17;23.90;;;15.70;;
7919;SDS011;18778;47.610;9.776;2023-03-01T11:07:47;24.77;;;16.13;;
7919;SDS011;18778;47.610;9.776;2023-03-01T11:10:22;24.83;;;15.50;;
7919;SDS011;18778;47.610;9.776;2023-03-01T11:12:52;24.47;;;16.97;;
7919;SDS011;18778;47.610;9.776;2023-03-01T11:15:28;25.77;;;16.77;;
7919;SDS011;18778;47.610;9.776;2023-03-01T11:17:54;26.83;;;17.90;;
7919;SDS011;18778;47.610;9.776;2023-03-01T11:20:34;25.67;;;16.93;;
7919;SDS011;18778;47.610;9.776;2023-03-01T11:23:02;25.13;;;16.07;;
7919;SDS011;18778;47.610;9.776;2023-03-01T11:25:38;25.20;;;16.43;;
7919;SDS011;18778;47.610;9.776;2023-03-01T11:28:07;24.53;;;16.53;;
7919;SDS011;18778;47.610;9.776;2023-03-01T11:30:53;24.83;;;16.37;;
7919;SDS011;18778;47.610;9.776;2023-03-01T11:36:31;27.90;;;17.37;;
7919;SDS011;18778;47.610;9.776;2023-03-01T11:39:11;24.20;;;15.97;;
7919;SDS011;18778;47.610;9.776;2023-03-01T11:42:15;26.67;;;16.97;;
7919;SDS011;18778;47.610;9.776;2023-03-01T11:45:08;28.00;;;17.47;;
7919;SDS011;18778;47.610;9.776;2023-03-01T11:47:46;27.27;;;18.63;;
7919;SDS011;18778;47.610;9.776;2023-03-01T11:53:18;24.67;;;16.73;;
7919;SDS011;18778;47.610;9.776;2023-03-01T11:55:58;27.20;;;17.53;;
7919;SDS011;18778;47.610;9.776;2023-03-01T11:58:44;25.13;;;16.73;;
7919;SDS011;18778;47.610;9.776;2023-03-01T12:09:51;29.70;;;17.70;;
7919;SDS011;18778;47.610;9.776;2023-03-01T12:12:29;26.43;;;17.07;;
7919;SDS011;18778;47.610;9.776;2023-03-01T12:23:02;27.97;;;18.27;;
7919;SDS011;18778;47.610;9.776;2023-03-01T12:31:40;26.57;;;17.73;;
7919;SDS011;18778;47.610;9.776;2023-03-01T12:37:13;27.83;;;19.00;;
7919;SDS011;18778;47.610;9.776;2023-03-01T12:39:57;26.60;;;17.30;;
7919;SDS011;18778;47.610;9.776;2023-03-01T12:42:55;27.30;;;17.90;;
7919;SDS011;18778;47.610;9.776;2023-03-01T12:51:20;27.67;;;18.10;;
7919;SDS011;18778;47.610;9.776;2023-03-01T12:53:50;25.60;;;17.67;;
7919;SDS011;18778;47.610;9.776;2023-03-01T12:56:23;31.30;;;18.73;;
7919;SDS011;18778;47.610;9.776;2023-03-01T12:59:11;28.00;;;18.40;;
7919;SDS011;18778;47.610;9.776;2023-03-01T13:04:56;30.27;;;18.73;;
7919;SDS011;18778;47.610;9.776;2023-03-01T13:10:03;27.73;;;18.43;;
7919;SDS011;18778;47.610;9.776;2023-03-01T13:18:33;28.57;;;17.90;;
7919;SDS011;18778;47.610;9.776;2023-03-01T13:23:09;30.63;;;19.17;;
7919;SDS011;18778;47.610;9.776;2023-03-01T13:31:00;29.73;;;19.37;;
7919;SDS011;18778;47.610;9.776;2023-03-01T13:35:52;28.10;;;18.33;;
7919;SDS011;18778;47.610;9.776;2023-03-01T13:41:03;29.13;;;18.80;;
7919;SDS011;18778;47.610;9.776;2023-03-01T13:43:33;27.80;;;18.00;;
7919;SDS011;18778;47.610;9.776;2023-03-01T13:46:02;28.83;;;18.80;;
7919;SDS011;18778;47.610;9.776;2023-03-01T13:48:36;29.67;;;18.43;;
7919;SDS011;18778;47.610;9.776;2023-03-01T13:51:04;27.40;;;17.90;;
7919;SDS011;18778;47.610;9.776;2023-03-01T13:53:35;27.20;;;18.03;;
7919;SDS011;18778;47.610;9.776;2023-03-01T14:01:23;24.37;;;17.27;;
7919;SDS011;18778;47.610;9.776;2023-03-01T14:03:49;25.03;;;17.53;;
7919;SDS011;18778;47.610;9.776;2023-03-01T14:06:16;26.17;;;17.27;;
7919;SDS011;18778;47.610;9.776;2023-03-01T14:08:47;23.57;;;15.60;;
7919;SDS011;18778;47.610;9.776;2023-03-01T14:11:52;24.87;;;16.47;;
7919;SDS011;18778;47.610;9.776;2023-03-01T14:16:47;29.90;;;19.00;;
7919;SDS011;18778;47.610;9.776;2023-03-01T14:21:46;23.73;;;16.83;;
7919;SDS011;18778;47.610;9.776;2023-03-01T14:24:20;22.17;;;16.83;;
7919;SDS011;18778;47.610;9.776;2023-03-01T14:26:47;24.00;;;16.77;;
7919;SDS011;18778;47.610;9.776;2023-03-01T14:29:35;25.83;;;17.40;;
7919;SDS011;18778;47.610;9.776;2023-03-01T14:32:09;24.07;;;16.57;;
7919;SDS011;18778;47.610;9.776;2023-03-01T14:34:44;25.87;;;17.20;;
7919;SDS011;18778;47.610;9.776;2023-03-01T14:37:16;23.50;;;16.63;;
7919;SDS011;18778;47.610;9.776;2023-03-01T14:39:45;23.53;;;16.93;;
7919;SDS011;18778;47.610;9.776;2023-03-01T14:42:11;24.10;;;17.33;;
7919;SDS011;18778;47.610;9.776;2023-03-01T14:44:38;24.23;;;16.13;;
7919;SDS011;18778;47.610;9.776;2023-03-01T14:47:27;24.90;;;16.80;;
7919;SDS011;18778;47.610;9.776;2023-03-01T14:49:56;25.97;;;17.80;;
7919;SDS011;18778;47.610;9.776;2023-03-01T14:52:25;27.43;;;18.57;;
7919;SDS011;18778;47.610;9.776;2023-03-01T14:54:59;27.73;;;18.20;;
7919;SDS011;18778;47.610;9.776;2023-03-01T14:57:25;26.20;;;18.00;;
7919;SDS011;18778;47.610;9.776;2023-03-01T14:59:57;28.23;;;17.60;;
7919;SDS011;18778;47.610;9.776;2023-03-01T15:02:25;26.50;;;17.30;;
7919;SDS011;18778;47.610;9.776;2023-03-01T15:04:54;25.87;;;17.80;;
7919;SDS011;18778;47.610;9.776;2023-03-01T15:07:31;25.10;;;17.67;;
7919;SDS011;18778;47.610;9.776;2023-03-01T15:10:00;25.57;;;17.77;;
7919;SDS011;18778;47.610;9.776;2023-03-01T15:14:54;27.87;;;18.03;;
7919;SDS011;18778;47.610;9.776;2023-03-01T15:17:33;24.23;;;16.53;;
7919;SDS011;18778;47.610;9.776;2023-03-01T15:20:13;26.33;;;18.13;;
7919;SDS011;18778;47.610;9.776;2023-03-01T15:22:45;27.87;;;19.53;;
7919;SDS011;18778;47.610;9.776;2023-03-01T15:25:16;29.00;;;19.03;;
7919;SDS011;18778;47.610;9.776;2023-03-01T15:27:45;28.67;;;18.03;;
7919;SDS011;18778;47.610;9.776;2023-03-01T15:30:22;29.23;;;17.87;;
7919;SDS011;18778;47.610;9.776;2023-03-01T15:33:19;30.10;;;18.90;;
7919;SDS011;18778;47.610;9.776;2023-03-01T15:35:55;27.17;;;17.87;;
7919;SDS011;18778;47.610;9.776;2023-03-01T15:41:24;30.70;;;19.70;;
7919;SDS011;18778;47.610;9.776;2023-03-01T15:43:52;33.03;;;20.67;;
7919;SDS011;18778;47.610;9.776;2023-03-01T15:46:27;35.17;;;22.83;;
7919;SDS011;18778;47.610;9.776;2023-03-01T15:48:57;41.30;;;23.80;;
7919;SDS011;18778;47.610;9.776;2023-03-01T15:51:33;41.27;;;24.00;;
7919;SDS011;18778;47.610;9.776;2023-03-01T15:54:04;39.37;;;22.63;;
7919;SDS011;18778;47.610;9.776;2023-03-01T15:56:39;42.00;;;24.40;;
7919;SDS011;18778;47.610;9.776;2023-03-01T15:59:04;70.30;;;36.30;;
7919;SDS011;18778;47.610;9.776;2023-03-01T16:01:32;72.60;;;39.20;;
7919;SDS011;18778;47.610;9.776;2023-03-01T16:03:59;51.03;;;29.73;;
7919;SDS011;18778;47.610;9.776;2023-03-01T16:06:24;43.50;;;25.60;;
7919;SDS011;18778;47.610;9.776;2023-03-01T16:08:50;42.73;;;25.77;;
7919;SDS011;18778;47.610;9.776;2023-03-01T16:11:17;40.73;;;24.47;;
7919;SDS011;18778;47.610;9.776;2023-03-01T16:13:44;30.30;;;19.83;;
7919;SDS011;18778;47.610;9.776;2023-03-01T16:16:10;31.43;;;19.70;;
7919;SDS011;18778;47.610;9.776;2023-03-01T16:18:39;31.93;;;21.37;;
7919;SDS011;18778;47.610;9.776;2023-03-01T16:21:05;31.53;;;19.87;;
7919;SDS011;18778;47.610;9.776;2023-03-01T16:23:31;32.83;;;20.30;;
7919;SDS011;18778;47.610;9.776;2023-03-01T16:26:00;33.23;;;21.37;;
7919;SDS011;18778;47.610;9.776;2023-03-01T16:28:26;31.50;;;21.03;;
7919;SDS011;18778;47.610;9.776;2023-03-01T16:30:51;39.80;;;23.27;;
7919;SDS011;18778;47.610;9.776;2023-03-01T16:33:17;33.07;;;20.93;;
7919;SDS011;18778;47.610;9.776;2023-03-01T16:35:43;29.97;;;19.00;;
7919;SDS011;18778;47.610;9.776;2023-03-01T16:38:09;31.13;;;19.67;;
7919;SDS011;18778;47.610;9.776;2023-03-01T16:40:35;29.57;;;19.00;;